sensor_id;sensor_type;location;lat;lon;timestamp;pressure;altitude;pressure_sealevel;temperature;humidity
70103;BME280;57470;50.034;15.256;2023-06-14T00:00:35;99218.81;;;14.56;86.69
70103;BME280;57470;50.034;15.256;2023-06-14T00:03:02;99221.91;;;14.61;86.35
70103;BME280;57470;50.034;15.256;2023-06-14T00:05:29;99222.59;;;14.53;86.54
70103;BME280;57470;50.034;15.256;2023-06-14T00:07:55;99225.56;;;14.60;86.63
70103;BME280;57470;50.034;15.256;2023-06-14T00:10:20;99224.34;;;14.64;86.87
70103;BME280;57470;50.034;15.256;2023-06-14T00:12:46;99223.00;;;14.39;87.69
70103;BME280;57470;50.034;15.256;2023-06-14T00:15:11;99225.38;;;14.42;86.54
70103;BME280;57470;50.034;15.256;2023-06-14T00:17:36;99231.31;;;14.46;86.53
70103;BME280;57470;50.034;15.256;2023-06-14T00:20:04;99234.38;;;14.41;85.16
70103;BME280;57470;50.034;15.256;2023-06-14T00:22:33;99232.63;;;14.31;87.04
70103;BME280;57470;50.034;15.256;2023-06-14T00:24:58;99238.38;;;14.47;87.10
70103;BME280;57470;50.034;15.256;2023-06-14T00:27:24;99244.69;;;14.46;86.17
70103;BME280;57470;50.034;15.256;2023-06-14T00:29:50;99232.22;;;14.35;86.05
70103;BME280;57470;50.034;15.256;2023-06-14T00:32:15;99231.97;;;14.38;85.81
70103;BME280;57470;50.034;15.256;2023-06-14T00:34:41;99229.41;;;14.37;85.23
70103;BME280;57470;50.034;15.256;2023-06-14T00:37:06;99228.22;;;14.20;87.69
70103;BME280;57470;50.034;15.256;2023-06-14T00:39:31;99236.25;;;14.20;87.64
70103;BME280;57470;50.034;15.256;2023-06-14T00:41:57;99230.94;;;14.30;87.16
70103;BME280;57470;50.034;15.256;2023-06-14T00:44:22;99233.75;;;14.28;87.23
70103;BME280;57470;50.034;15.256;2023-06-14T00:46:49;99231.66;;;14.01;88.09
70103;BME280;57470;50.034;15.256;2023-06-14T00:49:15;99223.81;;;14.09;88.27
70103;BME280;57470;50.034;15.256;2023-06-14T00:51:42;99228.97;;;14.01;87.57
70103;BME280;57470;50.034;15.256;2023-06-14T00:54:08;99224.53;;;13.90;87.83
70103;BME280;57470;50.034;15.256;2023-06-14T00:56:37;99217.00;;;13.96;87.88
70103;BME280;57470;50.034;15.256;2023-06-14T00:59:03;99222.34;;;14.05;88.20
70103;BME280;57470;50.034;15.256;2023-06-14T01:01:30;99211.09;;;14.02;88.40
70103;BME280;57470;50.034;15.256;2023-06-14T01:03:58;99211.66;;;14.05;86.90
70103;BME280;57470;50.034;15.256;2023-06-14T01:09:31;99202.63;;;13.97;87.39
70103;BME280;57470;50.034;15.256;2023-06-14T01:12:13;99205.75;;;14.02;87.10
70103;BME280;57470;50.034;15.256;2023-06-14T01:14:41;99205.44;;;13.95;86.38
70103;BME280;57470;50.034;15.256;2023-06-14T01:17:08;99206.31;;;14.05;86.65
70103;BME280;57470;50.034;15.256;2023-06-14T01:19:41;99208.84;;;14.07;86.25
70103;BME280;57470;50.034;15.256;2023-06-14T01:22:08;99210.25;;;14.01;86.59
70103;BME280;57470;50.034;15.256;2023-06-14T01:24:34;99214.94;;;13.26;88.55
70103;BME280;57470;50.034;15.256;2023-06-14T01:27:00;99210.56;;;13.57;88.60
70103;BME280;57470;50.034;15.256;2023-06-14T01:29:27;99215.22;;;13.11;90.75
70103;BME280;57470;50.034;15.256;2023-06-14T01:32:01;99214.81;;;12.95;91.30
70103;BME280;57470;50.034;15.256;2023-06-14T01:34:26;99212.72;;;12.99;91.56
70103;BME280;57470;50.034;15.256;2023-06-14T01:36:53;99207.91;;;12.82;92.07
70103;BME280;57470;50.034;15.256;2023-06-14T01:39:20;99211.38;;;12.61;93.12
70103;BME280;57470;50.034;15.256;2023-06-14T01:41:47;99212.69;;;12.67;92.73
70103;BME280;57470;50.034;15.256;2023-06-14T01:44:16;99216.94;;;12.69;93.61
70103;BME280;57470;50.034;15.256;2023-06-14T01:46:43;99213.22;;;12.50;93.58
70103;BME280;57470;50.034;15.256;2023-06-14T01:49:10;99216.28;;;12.88;92.72
70103;BME280;57470;50.034;15.256;2023-06-14T01:51:36;99215.81;;;12.83;91.66
70103;BME280;57470;50.034;15.256;2023-06-14T01:54:01;99216.72;;;13.36;90.54
70103;BME280;57470;50.034;15.256;2023-06-14T01:56:26;99221.94;;;13.38;90.20
70103;BME280;57470;50.034;15.256;2023-06-14T01:58:52;99220.19;;;13.48;90.01
70103;BME280;57470;50.034;15.256;2023-06-14T02:01:19;99221.50;;;13.53;89.97
70103;BME280;57470;50.034;15.256;2023-06-14T02:03:46;99226.63;;;13.45;89.47
70103;BME280;57470;50.034;15.256;2023-06-14T02:06:12;99215.91;;;13.57;88.52
70103;BME280;57470;50.034;15.256;2023-06-14T02:08:39;99222.81;;;13.59;89.22
70103;BME280;57470;50.034;15.256;2023-06-14T02:11:06;99224.22;;;13.63;88.57
70103;BME280;57470;50.034;15.256;2023-06-14T02:13:33;99217.66;;;13.67;88.32
70103;BME280;57470;50.034;15.256;2023-06-14T02:16:01;99223.00;;;13.67;88.05
70103;BME280;57470;50.034;15.256;2023-06-14T02:18:27;99225.56;;;13.69;88.03
70103;BME280;57470;50.034;15.256;2023-06-14T02:20:54;99223.78;;;13.58;88.84
70103;BME280;57470;50.034;15.256;2023-06-14T02:23:21;99225.09;;;13.64;88.57
70103;BME280;57470;50.034;15.256;2023-06-14T02:25:48;99230.09;;;13.57;88.18
70103;BME280;57470;50.034;15.256;2023-06-14T02:28:14;99229.66;;;13.73;87.98
70103;BME280;57470;50.034;15.256;2023-06-14T02:30:41;99224.91;;;13.76;88.29
70103;BME280;57470;50.034;15.256;2023-06-14T02:33:08;99230.75;;;13.70;88.55
70103;BME280;57470;50.034;15.256;2023-06-14T02:35:39;99237.34;;;13.66;88.29
70103;BME280;57470;50.034;15.256;2023-06-14T02:38:06;99237.47;;;13.65;89.70
70103;BME280;57470;50.034;15.256;2023-06-14T02:40:33;99228.53;;;13.55;89.34
70103;BME280;57470;50.034;15.256;2023-06-14T02:42:58;99228.28;;;13.58;89.36
70103;BME280;57470;50.034;15.256;2023-06-14T02:45:26;99230.44;;;13.64;89.90
70103;BME280;57470;50.034;15.256;2023-06-14T02:47:53;99239.44;;;13.42;90.42
70103;BME280;57470;50.034;15.256;2023-06-14T02:50:20;99240.19;;;13.53;89.98
70103;BME280;57470;50.034;15.256;2023-06-14T02:52:47;99244.94;;;13.29;90.24
70103;BME280;57470;50.034;15.256;2023-06-14T02:55:14;99240.44;;;13.30;89.98
70103;BME280;57470;50.034;15.256;2023-06-14T02:57:41;99238.75;;;13.29;89.94
70103;BME280;57470;50.034;15.256;2023-06-14T03:00:09;99237.22;;;13.15;90.45
70103;BME280;57470;50.034;15.256;2023-06-14T03:02:38;99237.38;;;13.34;89.93
70103;BME280;57470;50.034;15.256;2023-06-14T03:05:03;99235.66;;;13.33;90.88
70103;BME280;57470;50.034;15.256;2023-06-14T03:07:29;99244.41;;;13.35;90.12
70103;BME280;57470;50.034;15.256;2023-06-14T03:09:55;99242.91;;;13.22;91.50
70103;BME280;57470;50.034;15.256;2023-06-14T03:12:20;99245.91;;;13.28;91.28
70103;BME280;57470;50.034;15.256;2023-06-14T03:14:46;99238.63;;;13.30;91.12
70103;BME280;57470;50.034;15.256;2023-06-14T03:17:12;99234.91;;;13.42;90.42
70103;BME280;57470;50.034;15.256;2023-06-14T03:19:37;99236.75;;;13.42;90.99
70103;BME280;57470;50.034;15.256;2023-06-14T03:22:02;99240.59;;;13.49;89.95
70103;BME280;57470;50.034;15.256;2023-06-14T03:24:28;99237.03;;;13.28;90.59
70103;BME280;57470;50.034;15.256;2023-06-14T03:26:54;99238.56;;;13.41;90.63
70103;BME280;57470;50.034;15.256;2023-06-14T03:29:19;99237.44;;;13.44;90.13
70103;BME280;57470;50.034;15.256;2023-06-14T03:31:59;99249.09;;;13.43;89.62
70103;BME280;57470;50.034;15.256;2023-06-14T03:34:25;99247.94;;;13.36;91.28
70103;BME280;57470;50.034;15.256;2023-06-14T03:36:50;99241.00;;;13.86;88.29
70103;BME280;57470;50.034;15.256;2023-06-14T03:39:16;99242.72;;;13.34;91.85
70103;BME280;57470;50.034;15.256;2023-06-14T03:41:41;99244.94;;;13.29;90.74
70103;BME280;57470;50.034;15.256;2023-06-14T03:44:06;99245.22;;;13.47;91.63
70103;BME280;57470;50.034;15.256;2023-06-14T03:46:32;99250.09;;;13.63;90.93
70103;BME280;57470;50.034;15.256;2023-06-14T03:48:57;99252.06;;;13.40;90.67
70103;BME280;57470;50.034;15.256;2023-06-14T03:51:22;99254.91;;;14.10;88.84
70103;BME280;57470;50.034;15.256;2023-06-14T03:53:48;99253.66;;;14.14;88.75
70103;BME280;57470;50.034;15.256;2023-06-14T03:56:13;99257.97;;;14.57;86.61
70103;BME280;57470;50.034;15.256;2023-06-14T03:58:38;99256.66;;;14.82;85.88
70103;BME280;57470;50.034;15.256;2023-06-14T04:01:04;99258.25;;;15.23;85.05
70103;BME280;57470;50.034;15.256;2023-06-14T04:03:29;99257.66;;;14.90;84.16
70103;BME280;57470;50.034;15.256;2023-06-14T04:05:55;99256.78;;;14.19;86.87
70103;BME280;57470;50.034;15.256;2023-06-14T04:08:22;99267.97;;;14.34;87.01
70103;BME280;57470;50.034;15.256;2023-06-14T04:10:47;99270.97;;;13.89;88.13
70103;BME280;57470;50.034;15.256;2023-06-14T04:13:12;99269.28;;;13.36;90.39
70103;BME280;57470;50.034;15.256;2023-06-14T04:15:39;99270.41;;;14.37;89.01
70103;BME280;57470;50.034;15.256;2023-06-14T04:18:09;99278.47;;;14.77;85.61
70103;BME280;57470;50.034;15.256;2023-06-14T04:20:34;99273.19;;;15.06;84.05
70103;BME280;57470;50.034;15.256;2023-06-14T04:23:11;99280.47;;;14.94;83.90
70103;BME280;57470;50.034;15.256;2023-06-14T04:25:38;99283.31;;;14.93;83.60
70103;BME280;57470;50.034;15.256;2023-06-14T04:28:03;99284.53;;;14.79;83.84
70103;BME280;57470;50.034;15.256;2023-06-14T04:30:29;99282.66;;;14.70;83.62
70103;BME280;57470;50.034;15.256;2023-06-14T04:32:56;99284.91;;;14.65;84.52
70103;BME280;57470;50.034;15.256;2023-06-14T04:35:22;99287.38;;;14.47;84.73
70103;BME280;57470;50.034;15.256;2023-06-14T04:37:49;99291.19;;;14.85;83.66
70103;BME280;57470;50.034;15.256;2023-06-14T04:40:15;99294.56;;;14.87;83.99
70103;BME280;57470;50.034;15.256;2023-06-14T04:42:40;99295.44;;;14.97;83.26
70103;BME280;57470;50.034;15.256;2023-06-14T04:45:10;99292.88;;;14.95;83.30
70103;BME280;57470;50.034;15.256;2023-06-14T04:47:36;99296.72;;;14.93;84.54
70103;BME280;57470;50.034;15.256;2023-06-14T04:50:03;99294.19;;;14.61;85.29
70103;BME280;57470;50.034;15.256;2023-06-14T04:52:28;99303.78;;;14.63;86.05
70103;BME280;57470;50.034;15.256;2023-06-14T04:54:54;99313.50;;;15.05;84.94
70103;BME280;57470;50.034;15.256;2023-06-14T04:57:21;99307.88;;;15.08;83.79
70103;BME280;57470;50.034;15.256;2023-06-14T04:59:48;99303.22;;;15.10;83.80
70103;BME280;57470;50.034;15.256;2023-06-14T05:02:13;99306.63;;;14.72;85.42
70103;BME280;57470;50.034;15.256;2023-06-14T05:04:39;99298.56;;;15.02;84.67
70103;BME280;57470;50.034;15.256;2023-06-14T05:07:08;99303.38;;;14.68;85.13
70103;BME280;57470;50.034;15.256;2023-06-14T05:09:34;99309.41;;;15.00;85.55
70103;BME280;57470;50.034;15.256;2023-06-14T05:12:00;99300.50;;;14.90;84.94
70103;BME280;57470;50.034;15.256;2023-06-14T05:14:25;99308.19;;;15.24;85.56
70103;BME280;57470;50.034;15.256;2023-06-14T05:16:51;99304.41;;;14.86;86.19
70103;BME280;57470;50.034;15.256;2023-06-14T05:19:17;99314.50;;;15.13;84.10
70103;BME280;57470;50.034;15.256;2023-06-14T05:21:43;99306.72;;;15.00;82.49
70103;BME280;57470;50.034;15.256;2023-06-14T05:24:09;99313.22;;;15.08;82.81
70103;BME280;57470;50.034;15.256;2023-06-14T05:26:35;99312.81;;;15.02;83.92
70103;BME280;57470;50.034;15.256;2023-06-14T05:29:00;99312.28;;;14.78;83.81
70103;BME280;57470;50.034;15.256;2023-06-14T05:31:27;99306.28;;;14.95;82.87
70103;BME280;57470;50.034;15.256;2023-06-14T05:33:53;99303.91;;;15.02;83.58
70103;BME280;57470;50.034;15.256;2023-06-14T05:36:19;99310.97;;;15.03;82.67
70103;BME280;57470;50.034;15.256;2023-06-14T05:38:46;99311.97;;;15.02;84.21
70103;BME280;57470;50.034;15.256;2023-06-14T05:41:12;99324.25;;;15.24;81.89
70103;BME280;57470;50.034;15.256;2023-06-14T05:43:37;99319.16;;;15.11;82.39
70103;BME280;57470;50.034;15.256;2023-06-14T05:46:03;99322.31;;;15.45;82.82
70103;BME280;57470;50.034;15.256;2023-06-14T05:48:29;99320.72;;;15.14;83.94
70103;BME280;57470;50.034;15.256;2023-06-14T05:50:55;99337.69;;;15.33;84.08
70103;BME280;57470;50.034;15.256;2023-06-14T05:53:21;99332.91;;;15.37;83.20
70103;BME280;57470;50.034;15.256;2023-06-14T05:55:46;99323.72;;;15.49;80.51
70103;BME280;57470;50.034;15.256;2023-06-14T05:58:11;99332.41;;;15.03;84.38
70103;BME280;57470;50.034;15.256;2023-06-14T06:00:39;99329.84;;;15.70;80.43
70103;BME280;57470;50.034;15.256;2023-06-14T06:03:04;99326.59;;;15.67;81.36
70103;BME280;57470;50.034;15.256;2023-06-14T06:05:30;99331.41;;;15.92;80.80
70103;BME280;57470;50.034;15.256;2023-06-14T06:07:55;99331.09;;;15.76;81.41
70103;BME280;57470;50.034;15.256;2023-06-14T06:10:21;99330.06;;;15.48;80.64
70103;BME280;57470;50.034;15.256;2023-06-14T06:12:46;99325.75;;;15.86;80.17
70103;BME280;57470;50.034;15.256;2023-06-14T06:15:13;99331.69;;;15.80;79.60
70103;BME280;57470;50.034;15.256;2023-06-14T06:17:39;99327.81;;;15.53;82.96
70103;BME280;57470;50.034;15.256;2023-06-14T06:20:06;99335.91;;;15.63;82.21
70103;BME280;57470;50.034;15.256;2023-06-14T06:22:36;99333.09;;;15.74;81.62
70103;BME280;57470;50.034;15.256;2023-06-14T06:25:01;99335.88;;;15.53;82.34
70103;BME280;57470;50.034;15.256;2023-06-14T06:27:27;99333.34;;;16.09;83.67
70103;BME280;57470;50.034;15.256;2023-06-14T06:29:52;99333.47;;;16.27;79.17
70103;BME280;57470;50.034;15.256;2023-06-14T06:32:18;99336.03;;;17.30;78.15
70103;BME280;57470;50.034;15.256;2023-06-14T06:34:43;99326.22;;;17.56;75.37
70103;BME280;57470;50.034;15.256;2023-06-14T06:37:09;99332.41;;;17.67;73.98
70103;BME280;57470;50.034;15.256;2023-06-14T06:39:34;99333.22;;;18.03;69.21
70103;BME280;57470;50.034;15.256;2023-06-14T06:42:00;99334.16;;;18.11;67.96
70103;BME280;57470;50.034;15.256;2023-06-14T06:44:25;99336.91;;;18.19;68.10
70103;BME280;57470;50.034;15.256;2023-06-14T06:46:51;99346.59;;;18.12;66.54
70103;BME280;57470;50.034;15.256;2023-06-14T06:49:16;99337.44;;;18.49;68.45
70103;BME280;57470;50.034;15.256;2023-06-14T06:51:42;99342.34;;;18.79;67.40
70103;BME280;57470;50.034;15.256;2023-06-14T06:54:08;99342.00;;;18.74;66.46
70103;BME280;57470;50.034;15.256;2023-06-14T06:56:34;99347.13;;;18.85;66.15
70103;BME280;57470;50.034;15.256;2023-06-14T06:59:00;99352.44;;;18.08;67.41
70103;BME280;57470;50.034;15.256;2023-06-14T07:01:25;99351.75;;;18.23;68.42
70103;BME280;57470;50.034;15.256;2023-06-14T07:03:51;99358.22;;;18.13;67.92
70103;BME280;57470;50.034;15.256;2023-06-14T07:06:17;99363.16;;;17.82;68.41
70103;BME280;57470;50.034;15.256;2023-06-14T07:08:45;99360.16;;;18.03;68.51
70103;BME280;57470;50.034;15.256;2023-06-14T07:11:14;99367.22;;;17.68;69.97
70103;BME280;57470;50.034;15.256;2023-06-14T07:13:39;99358.69;;;17.73;70.46
70103;BME280;57470;50.034;15.256;2023-06-14T07:16:05;99354.59;;;18.48;70.59
70103;BME280;57470;50.034;15.256;2023-06-14T07:18:31;99354.66;;;18.56;68.59
70103;BME280;57470;50.034;15.256;2023-06-14T07:20:56;99355.13;;;18.69;65.45
70103;BME280;57470;50.034;15.256;2023-06-14T07:23:22;99358.59;;;18.61;66.58
70103;BME280;57470;50.034;15.256;2023-06-14T07:25:48;99359.16;;;19.41;64.96
70103;BME280;57470;50.034;15.256;2023-06-14T07:28:14;99359.47;;;18.70;66.82
70103;BME280;57470;50.034;15.256;2023-06-14T07:30:39;99362.75;;;19.16;65.10
70103;BME280;57470;50.034;15.256;2023-06-14T07:33:05;99362.75;;;19.58;66.99
70103;BME280;57470;50.034;15.256;2023-06-14T07:35:31;99359.69;;;19.53;63.58
70103;BME280;57470;50.034;15.256;2023-06-14T07:37:56;99360.72;;;19.52;62.23
70103;BME280;57470;50.034;15.256;2023-06-14T07:40:22;99363.97;;;19.79;62.61
70103;BME280;57470;50.034;15.256;2023-06-14T07:42:47;99370.50;;;19.61;62.21
70103;BME280;57470;50.034;15.256;2023-06-14T07:45:13;99375.59;;;19.72;60.33
70103;BME280;57470;50.034;15.256;2023-06-14T07:47:39;99371.91;;;19.73;61.84
70103;BME280;57470;50.034;15.256;2023-06-14T07:50:05;99375.47;;;19.90;60.65
70103;BME280;57470;50.034;15.256;2023-06-14T07:52:30;99376.53;;;19.46;60.94
70103;BME280;57470;50.034;15.256;2023-06-14T07:54:56;99383.53;;;19.65;60.64
70103;BME280;57470;50.034;15.256;2023-06-14T07:57:22;99390.06;;;19.55;61.11
70103;BME280;57470;50.034;15.256;2023-06-14T07:59:47;99387.38;;;19.63;60.88
70103;BME280;57470;50.034;15.256;2023-06-14T08:02:12;99383.69;;;19.22;59.73
70103;BME280;57470;50.034;15.256;2023-06-14T08:04:38;99386.91;;;19.33;60.18
70103;BME280;57470;50.034;15.256;2023-06-14T08:07:04;99381.13;;;19.54;59.80
70103;BME280;57470;50.034;15.256;2023-06-14T08:09:30;99388.81;;;19.41;60.79
70103;BME280;57470;50.034;15.256;2023-06-14T08:11:56;99385.84;;;19.60;60.15
70103;BME280;57470;50.034;15.256;2023-06-14T08:14:21;99392.63;;;19.64;59.82
70103;BME280;57470;50.034;15.256;2023-06-14T08:16:47;99390.63;;;19.74;58.59
70103;BME280;57470;50.034;15.256;2023-06-14T08:19:13;99392.03;;;20.03;62.10
70103;BME280;57470;50.034;15.256;2023-06-14T08:21:38;99387.63;;;20.10;60.01
70103;BME280;57470;50.034;15.256;2023-06-14T08:24:04;99389.13;;;19.88;61.43
70103;BME280;57470;50.034;15.256;2023-06-14T08:26:30;99385.63;;;20.04;61.49
70103;BME280;57470;50.034;15.256;2023-06-14T08:28:56;99393.53;;;20.13;60.75
70103;BME280;57470;50.034;15.256;2023-06-14T08:31:22;99390.19;;;20.28;61.62
70103;BME280;57470;50.034;15.256;2023-06-14T08:33:49;99382.56;;;20.23;59.25
70103;BME280;57470;50.034;15.256;2023-06-14T08:36:14;99388.97;;;20.14;58.92
70103;BME280;57470;50.034;15.256;2023-06-14T08:38:40;99383.09;;;20.27;58.48
70103;BME280;57470;50.034;15.256;2023-06-14T08:41:05;99380.88;;;20.06;59.02
70103;BME280;57470;50.034;15.256;2023-06-14T08:43:33;99388.63;;;19.84;58.85
70103;BME280;57470;50.034;15.256;2023-06-14T08:46:02;99391.84;;;20.04;59.75
70103;BME280;57470;50.034;15.256;2023-06-14T08:48:29;99384.41;;;20.06;58.44
70103;BME280;57470;50.034;15.256;2023-06-14T08:50:59;99388.81;;;20.07;58.57
70103;BME280;57470;50.034;15.256;2023-06-14T08:53:30;99379.38;;;20.28;59.23
70103;BME280;57470;50.034;15.256;2023-06-14T08:56:00;99379.41;;;20.36;58.80
70103;BME280;57470;50.034;15.256;2023-06-14T08:58:28;99384.63;;;20.53;61.31
70103;BME280;57470;50.034;15.256;2023-06-14T09:00:57;99378.25;;;19.47;61.45
70103;BME280;57470;50.034;15.256;2023-06-14T09:03:23;99385.47;;;20.21;59.32
70103;BME280;57470;50.034;15.256;2023-06-14T09:05:56;99388.81;;;19.99;59.19
70103;BME280;57470;50.034;15.256;2023-06-14T09:08:24;99391.88;;;20.12;60.01
70103;BME280;57470;50.034;15.256;2023-06-14T09:10:50;99391.66;;;19.90;57.64
70103;BME280;57470;50.034;15.256;2023-06-14T09:13:16;99387.31;;;20.13;58.09
70103;BME280;57470;50.034;15.256;2023-06-14T09:15:42;99388.47;;;19.94;59.39
70103;BME280;57470;50.034;15.256;2023-06-14T09:18:07;99396.22;;;20.13;59.06
70103;BME280;57470;50.034;15.256;2023-06-14T09:20:32;99393.22;;;20.41;59.13
70103;BME280;57470;50.034;15.256;2023-06-14T09:22:58;99398.31;;;20.36;56.04
70103;BME280;57470;50.034;15.256;2023-06-14T09:25:24;99394.91;;;20.17;58.20
70103;BME280;57470;50.034;15.256;2023-06-14T09:27:51;99399.81;;;20.30;57.26
70103;BME280;57470;50.034;15.256;2023-06-14T09:30:19;99393.91;;;20.43;58.48
70103;BME280;57470;50.034;15.256;2023-06-14T09:32:45;99383.59;;;20.54;56.19
70103;BME280;57470;50.034;15.256;2023-06-14T09:35:11;99396.09;;;20.64;57.75
70103;BME280;57470;50.034;15.256;2023-06-14T09:37:36;99399.66;;;20.48;53.65
70103;BME280;57470;50.034;15.256;2023-06-14T09:40:03;99395.91;;;20.24;55.57
70103;BME280;57470;50.034;15.256;2023-06-14T09:42:29;99385.41;;;20.78;55.40
70103;BME280;57470;50.034;15.256;2023-06-14T09:44:56;99371.88;;;20.86;57.71
70103;BME280;57470;50.034;15.256;2023-06-14T09:47:25;99382.59;;;20.64;54.98
70103;BME280;57470;50.034;15.256;2023-06-14T09:49:51;99378.25;;;21.18;56.12
70103;BME280;57470;50.034;15.256;2023-06-14T09:52:18;99371.94;;;21.25;54.00
70103;BME280;57470;50.034;15.256;2023-06-14T09:54:44;99370.00;;;21.42;55.57
70103;BME280;57470;50.034;15.256;2023-06-14T09:57:20;99370.63;;;21.05;55.15
70103;BME280;57470;50.034;15.256;2023-06-14T09:59:47;99363.53;;;21.20;53.94
70103;BME280;57470;50.034;15.256;2023-06-14T10:02:35;99377.22;;;21.11;55.07
70103;BME280;57470;50.034;15.256;2023-06-14T10:05:05;99364.94;;;21.39;54.17
70103;BME280;57470;50.034;15.256;2023-06-14T10:07:48;99372.19;;;21.47;53.58
70103;BME280;57470;50.034;15.256;2023-06-14T10:10:17;99376.63;;;21.70;54.15
70103;BME280;57470;50.034;15.256;2023-06-14T10:12:43;99377.75;;;21.76;53.23
70103;BME280;57470;50.034;15.256;2023-06-14T10:15:10;99375.78;;;21.93;53.26
70103;BME280;57470;50.034;15.256;2023-06-14T10:17:50;99373.03;;;22.09;53.05
70103;BME280;57470;50.034;15.256;2023-06-14T10:22:48;99372.00;;;22.48;53.44
70103;BME280;57470;50.034;15.256;2023-06-14T10:25:31;99362.59;;;21.98;53.71
70103;BME280;57470;50.034;15.256;2023-06-14T10:28:14;99366.66;;;21.94;52.09
70103;BME280;57470;50.034;15.256;2023-06-14T10:33:29;99363.94;;;21.71;52.21
70103;BME280;57470;50.034;15.256;2023-06-14T10:36:24;99366.88;;;21.84;53.31
70103;BME280;57470;50.034;15.256;2023-06-14T10:39:05;99358.34;;;21.42;52.90
70103;BME280;57470;50.034;15.256;2023-06-14T10:41:33;99360.56;;;21.69;52.71
70103;BME280;57470;50.034;15.256;2023-06-14T10:46:41;99353.91;;;22.02;51.38
70103;BME280;57470;50.034;15.256;2023-06-14T10:49:11;99361.06;;;21.73;51.18
70103;BME280;57470;50.034;15.256;2023-06-14T10:51:42;99351.03;;;21.50;53.99
70103;BME280;57470;50.034;15.256;2023-06-14T10:54:12;99356.44;;;22.04;51.34
70103;BME280;57470;50.034;15.256;2023-06-14T10:56:49;99356.03;;;22.15;51.62
70103;BME280;57470;50.034;15.256;2023-06-14T10:59:16;99355.34;;;22.36;50.08
70103;BME280;57470;50.034;15.256;2023-06-14T11:02:13;99362.06;;;22.40;52.70
70103;BME280;57470;50.034;15.256;2023-06-14T11:04:50;99352.53;;;22.06;52.21
70103;BME280;57470;50.034;15.256;2023-06-14T11:10:38;99351.53;;;21.54;50.40
70103;BME280;57470;50.034;15.256;2023-06-14T11:13:06;99353.69;;;21.27;51.01
70103;BME280;57470;50.034;15.256;2023-06-14T11:15:33;99348.44;;;21.26;51.60
70103;BME280;57470;50.034;15.256;2023-06-14T11:18:06;99345.41;;;21.83;50.71
70103;BME280;57470;50.034;15.256;2023-06-14T11:20:33;99347.22;;;22.36;52.07
70103;BME280;57470;50.034;15.256;2023-06-14T11:22:59;99350.38;;;22.02;53.37
70103;BME280;57470;50.034;15.256;2023-06-14T11:25:25;99342.53;;;22.82;49.36
70103;BME280;57470;50.034;15.256;2023-06-14T11:27:51;99340.88;;;22.81;49.96
70103;BME280;57470;50.034;15.256;2023-06-14T11:30:17;99341.31;;;22.32;50.35
70103;BME280;57470;50.034;15.256;2023-06-14T11:32:46;99335.31;;;22.22;48.94
70103;BME280;57470;50.034;15.256;2023-06-14T11:35:12;99336.53;;;22.72;48.59
70103;BME280;57470;50.034;15.256;2023-06-14T11:37:39;99326.31;;;23.18;47.54
70103;BME280;57470;50.034;15.256;2023-06-14T11:40:07;99327.94;;;23.12;49.51
70103;BME280;57470;50.034;15.256;2023-06-14T11:42:33;99342.97;;;23.30;48.30
70103;BME280;57470;50.034;15.256;2023-06-14T11:45:00;99334.31;;;22.90;47.28
70103;BME280;57470;50.034;15.256;2023-06-14T11:47:36;99326.19;;;22.90;48.25
70103;BME280;57470;50.034;15.256;2023-06-14T11:50:03;99327.44;;;22.65;50.72
70103;BME280;57470;50.034;15.256;2023-06-14T11:52:29;99342.16;;;22.85;52.12
70103;BME280;57470;50.034;15.256;2023-06-14T11:54:56;99340.38;;;22.77;52.64
70103;BME280;57470;50.034;15.256;2023-06-14T11:57:21;99342.16;;;22.85;53.21
70103;BME280;57470;50.034;15.256;2023-06-14T11:59:48;99334.88;;;22.86;53.17
70103;BME280;57470;50.034;15.256;2023-06-14T12:02:15;99334.69;;;23.16;53.84
70103;BME280;57470;50.034;15.256;2023-06-14T12:04:41;99348.50;;;23.22;52.24
70103;BME280;57470;50.034;15.256;2023-06-14T12:07:10;99330.47;;;22.99;51.87
70103;BME280;57470;50.034;15.256;2023-06-14T12:12:35;99327.28;;;22.96;53.42
70103;BME280;57470;50.034;15.256;2023-06-14T12:15:06;99332.00;;;22.50;51.80
70103;BME280;57470;50.034;15.256;2023-06-14T12:17:36;99319.53;;;22.78;51.54
70103;BME280;57470;50.034;15.256;2023-06-14T12:20:08;99322.44;;;22.76;52.20
70103;BME280;57470;50.034;15.256;2023-06-14T12:22:59;99320.31;;;22.49;51.36
70103;BME280;57470;50.034;15.256;2023-06-14T12:25:33;99320.97;;;22.66;51.63
70103;BME280;57470;50.034;15.256;2023-06-14T12:28:08;99323.31;;;22.54;51.07
70103;BME280;57470;50.034;15.256;2023-06-14T12:30:36;99320.06;;;23.03;51.56
70103;BME280;57470;50.034;15.256;2023-06-14T12:33:05;99326.94;;;22.46;47.77
70103;BME280;57470;50.034;15.256;2023-06-14T12:35:31;99329.50;;;22.63;47.70
70103;BME280;57470;50.034;15.256;2023-06-14T12:37:56;99332.25;;;22.77;47.67
70103;BME280;57470;50.034;15.256;2023-06-14T12:40:22;99336.91;;;22.31;46.23
70103;BME280;57470;50.034;15.256;2023-06-14T12:42:48;99323.50;;;22.53;44.64
70103;BME280;57470;50.034;15.256;2023-06-14T12:45:14;99324.59;;;22.81;46.19
70103;BME280;57470;50.034;15.256;2023-06-14T12:47:39;99322.59;;;22.75;46.29
70103;BME280;57470;50.034;15.256;2023-06-14T12:50:06;99323.63;;;23.03;46.15
70103;BME280;57470;50.034;15.256;2023-06-14T12:52:31;99324.00;;;23.15;47.13
70103;BME280;57470;50.034;15.256;2023-06-14T12:55:01;99323.63;;;23.03;45.96
70103;BME280;57470;50.034;15.256;2023-06-14T12:57:26;99325.53;;;23.53;46.11
70103;BME280;57470;50.034;15.256;2023-06-14T12:59:51;99321.75;;;23.90;47.11
70103;BME280;57470;50.034;15.256;2023-06-14T13:02:19;99317.59;;;23.73;45.04
70103;BME280;57470;50.034;15.256;2023-06-14T13:04:46;99327.09;;;23.63;44.75
70103;BME280;57470;50.034;15.256;2023-06-14T13:07:11;99327.44;;;23.96;46.48